createdAt,value
2017-11-28T00:02:02.086Z,6.70
2017-11-28T00:04:28.101Z,7.20
2017-11-28T00:06:54.108Z,12.50
2017-11-28T00:09:20.258Z,7.13
2017-11-28T00:11:46.232Z,7.53
2017-11-28T00:14:12.205Z,7.32
2017-11-28T00:16:38.439Z,10.30
2017-11-28T00:19:05.229Z,6.40
2017-11-28T00:21:31.240Z,7.70
2017-11-28T00:23:57.245Z,8.57
2017-11-28T00:26:23.214Z,8.48
2017-11-28T00:28:49.230Z,9.25
2017-11-28T00:31:15.225Z,10.52
2017-11-28T00:33:41.193Z,8.20
2017-11-28T00:36:07.169Z,6.97
2017-11-28T00:38:33.454Z,6.50
2017-11-28T00:40:59.453Z,8.65
2017-11-28T00:43:25.449Z,9.93
2017-11-28T00:45:51.739Z,8.55
2017-11-28T00:48:18.463Z,7.80
2017-11-28T00:50:44.426Z,9.30
2017-11-28T00:53:10.435Z,8.50
2017-11-28T00:55:37.138Z,7.43
2017-11-28T00:58:03.189Z,9.18
2017-11-28T01:00:30.678Z,8.20
2017-11-28T01:02:56.693Z,8.43
2017-11-28T01:05:22.665Z,10.57
2017-11-28T01:07:48.659Z,6.70
2017-11-28T01:10:14.648Z,9.10
2017-11-28T01:12:40.641Z,6.57
2017-11-28T01:15:06.969Z,6.32
2017-11-28T01:17:33.006Z,9.75
2017-11-28T01:19:59.739Z,10.75
2017-11-28T01:22:26.501Z,11.70
2017-11-28T01:24:52.471Z,8.90
2017-11-28T01:27:18.455Z,7.95
2017-11-28T01:29:44.465Z,9.90
2017-11-28T01:32:10.488Z,7.75
2017-11-28T01:34:36.466Z,10.55
2017-11-28T01:37:02.459Z,8.50
2017-11-28T01:39:28.445Z,10.18
2017-11-28T01:41:55.174Z,10.32
2017-11-28T01:44:22.211Z,11.40
2017-11-28T01:46:48.181Z,8.02
2017-11-28T01:49:14.161Z,9.20
2017-11-28T01:51:41.111Z,11.60
2017-11-28T01:54:07.822Z,9.10
2017-11-28T01:56:33.801Z,9.35
2017-11-28T01:58:59.781Z,10.47
2017-11-28T02:01:26.509Z,9.75
2017-11-28T02:03:52.476Z,8.13
2017-11-28T02:06:18.478Z,13.00
2017-11-28T02:08:45.200Z,9.48
2017-11-28T02:11:11.207Z,10.63
2017-11-28T02:13:37.219Z,8.35
2017-11-28T02:16:03.265Z,11.02
2017-11-28T02:18:29.299Z,14.02
2017-11-28T02:20:56.128Z,10.93
2017-11-28T02:23:22.090Z,13.55
2017-11-28T02:25:48.094Z,11.95
2017-11-28T02:28:14.830Z,10.47
2017-11-28T02:30:41.588Z,10.75
2017-11-28T02:33:07.562Z,8.00
2017-11-28T02:35:33.570Z,8.98
2017-11-28T02:38:02.479Z,12.77
2017-11-28T02:40:40.865Z,9.63
2017-11-28T02:43:06.847Z,13.35
2017-11-28T02:45:32.830Z,6.53
2017-11-28T02:47:58.847Z,6.97
2017-11-28T02:50:24.822Z,7.12
2017-11-28T02:52:50.811Z,9.40
2017-11-28T02:55:25.599Z,12.88
2017-11-28T02:57:51.590Z,8.23
2017-11-28T03:00:17.567Z,9.77
2017-11-28T03:02:43.552Z,10.98
2017-11-28T03:05:09.537Z,11.30
2017-11-28T03:07:36.269Z,11.30
2017-11-28T03:10:19.649Z,8.50
2017-11-28T03:12:48.498Z,10.02
2017-11-28T03:15:16.048Z,12.95
2017-11-28T03:17:42.821Z,9.13
2017-11-28T03:20:14.673Z,9.23
2017-11-28T03:22:40.648Z,16.08
2017-11-28T03:28:12.934Z,10.82
2017-11-28T03:30:41.738Z,11.65
2017-11-28T03:33:08.506Z,12.43
2017-11-28T03:35:34.465Z,15.13
2017-11-28T03:38:00.793Z,8.82
2017-11-28T03:40:26.768Z,11.98
2017-11-28T03:42:53.475Z,11.15
2017-11-28T03:45:22.590Z,9.13
2017-11-28T03:47:49.316Z,12.00
2017-11-28T03:50:17.324Z,11.88
2017-11-28T03:52:43.375Z,13.38
2017-11-28T03:55:09.346Z,14.63
2017-11-28T03:57:36.074Z,11.43
2017-11-28T04:00:03.625Z,14.10
2017-11-28T04:02:29.591Z,9.57
2017-11-28T04:04:55.589Z,13.45
2017-11-28T04:07:22.648Z,11.32
2017-11-28T04:09:48.613Z,13.90
2017-11-28T04:12:14.629Z,15.20
2017-11-28T04:14:40.620Z,17.70
2017-11-28T04:17:06.594Z,12.13
2017-11-28T04:19:32.618Z,10.25
2017-11-28T04:21:58.639Z,11.57
2017-11-28T04:24:24.607Z,13.55
2017-11-28T04:26:50.577Z,11.00
2017-11-28T04:29:17.434Z,14.67
2017-11-28T04:31:43.402Z,13.73
2017-11-28T04:34:09.373Z,14.20
2017-11-28T04:36:35.383Z,13.88
2017-11-28T04:39:01.367Z,13.50
2017-11-28T04:41:27.340Z,12.93
2017-11-28T04:43:53.310Z,13.82
2017-11-28T04:46:19.306Z,9.70
2017-11-28T04:48:45.319Z,15.35
2017-11-28T04:51:12.055Z,11.02
2017-11-28T04:53:38.786Z,11.68
2017-11-28T04:56:04.766Z,11.20
2017-11-28T04:58:30.750Z,11.52
2017-11-28T05:00:57.463Z,11.20
2017-11-28T05:03:23.449Z,14.85
2017-11-28T05:05:49.403Z,10.80
2017-11-28T05:08:15.370Z,15.95
2017-11-28T05:10:41.362Z,15.32
2017-11-28T05:13:08.091Z,14.80
2017-11-28T05:15:34.083Z,13.43
2017-11-28T05:18:00.056Z,15.70
2017-11-28T05:20:26.796Z,15.70
2017-11-28T05:22:53.508Z,13.37
2017-11-28T05:25:19.523Z,12.18
2017-11-28T05:27:45.550Z,17.00
2017-11-28T05:30:11.516Z,16.20
2017-11-28T05:32:37.497Z,12.95
2017-11-28T05:35:03.595Z,14.07
2017-11-28T05:37:29.565Z,13.93
2017-11-28T05:39:56.269Z,13.53
2017-11-28T05:42:22.270Z,13.32
2017-11-28T05:44:48.264Z,15.90
2017-11-28T05:47:14.238Z,14.98
2017-11-28T05:49:40.213Z,18.23
2017-11-28T05:52:06.189Z,13.73
2017-11-28T05:54:32.158Z,11.48
2017-11-28T05:56:58.387Z,19.17
2017-11-28T05:59:24.374Z,12.53
2017-11-28T06:01:51.099Z,13.80
2017-11-28T06:04:17.122Z,13.80
2017-11-28T06:06:43.090Z,16.15
2017-11-28T06:09:09.066Z,15.33
2017-11-28T06:11:35.085Z,13.15
2017-11-28T06:14:01.094Z,13.62
2017-11-28T06:16:27.898Z,11.37
2017-11-28T06:18:54.298Z,16.95
2017-11-28T06:21:21.030Z,15.60
2017-11-28T06:23:47.807Z,13.75
2017-11-28T06:26:13.820Z,13.05
2017-11-28T06:28:39.804Z,11.70
2017-11-28T06:31:05.791Z,14.10
2017-11-28T06:33:31.754Z,10.13
2017-11-28T06:35:59.534Z,12.10
2017-11-28T06:38:26.240Z,15.93
2017-11-28T06:40:52.213Z,16.12
2017-11-28T06:43:18.205Z,11.70
2017-11-28T06:45:44.168Z,13.20
2017-11-28T06:48:10.206Z,14.27
2017-11-28T06:50:36.209Z,14.27
2017-11-28T06:53:02.178Z,13.62
2017-11-28T06:55:28.142Z,21.00
2017-11-28T06:57:54.217Z,24.90
2017-11-28T07:00:20.185Z,13.10
2017-11-28T07:02:46.177Z,10.03
2017-11-28T07:05:12.913Z,15.88
2017-11-28T07:07:39.627Z,22.13
2017-11-28T07:10:05.622Z,13.20
2017-11-28T07:12:31.602Z,13.83
2017-11-28T07:14:58.319Z,12.70
2017-11-28T07:17:24.269Z,16.47
2017-11-28T07:19:51.005Z,14.43
2017-11-28T07:22:17.708Z,15.65
2017-11-28T07:24:43.674Z,16.95
2017-11-28T07:27:09.662Z,16.30
2017-11-28T07:29:35.634Z,13.38
2017-11-28T07:32:01.625Z,14.97
2017-11-28T07:34:28.365Z,15.40
2017-11-28T07:36:55.096Z,12.10
2017-11-28T07:39:21.811Z,14.30
2017-11-28T07:41:47.788Z,14.43
2017-11-28T07:44:13.790Z,12.98
2017-11-28T07:46:39.804Z,11.27
2017-11-28T07:49:06.546Z,10.13
2017-11-28T07:51:33.268Z,12.97
2017-11-28T07:53:59.286Z,11.77
2017-11-28T07:56:25.253Z,10.67
2017-11-28T07:58:51.220Z,10.05
2017-11-28T08:01:17.191Z,10.38
2017-11-28T08:03:43.162Z,18.23
2017-11-28T08:06:09.147Z,12.85
2017-11-28T08:08:35.327Z,9.83
2017-11-28T08:11:01.341Z,11.12
2017-11-28T08:13:27.341Z,14.40
2017-11-28T08:15:53.314Z,13.67
2017-11-28T08:18:20.046Z,15.77
2017-11-28T08:20:46.810Z,14.47
2017-11-28T08:23:12.827Z,15.55
2017-11-28T08:25:38.800Z,15.87
2017-11-28T08:28:04.845Z,17.05
2017-11-28T08:30:31.585Z,13.75
2017-11-28T08:32:58.330Z,13.13
2017-11-28T08:35:25.105Z,15.67
2017-11-28T08:37:51.106Z,15.98
2017-11-28T08:40:17.851Z,14.20
2017-11-28T08:42:43.882Z,14.13
2017-11-28T08:45:09.866Z,16.00
2017-11-28T08:47:35.853Z,14.93
2017-11-28T08:50:02.750Z,13.98
2017-11-28T08:52:29.490Z,15.50
2017-11-28T08:54:56.200Z,11.38
2017-11-28T08:57:22.213Z,11.45
2017-11-28T08:59:48.182Z,15.55
2017-11-28T09:02:14.175Z,13.52
2017-11-28T09:04:40.882Z,14.63
2017-11-28T09:07:06.878Z,14.60
2017-11-28T09:09:33.781Z,12.90
2017-11-28T09:12:00.534Z,13.45
2017-11-28T09:14:27.247Z,15.18
2017-11-28T09:16:53.234Z,12.88
2017-11-28T09:19:19.207Z,12.10
2017-11-28T09:21:45.925Z,12.70
2017-11-28T09:24:11.957Z,17.00
2017-11-28T09:26:37.956Z,15.40
2017-11-28T09:29:03.928Z,11.68
2017-11-28T09:31:31.053Z,12.23
2017-11-28T09:33:57.026Z,14.48
2017-11-28T09:36:23.027Z,11.95
2017-11-28T09:38:49.029Z,14.70
2017-11-28T09:41:15.764Z,12.60
2017-11-28T09:43:42.468Z,17.15
2017-11-28T09:46:08.474Z,15.95
2017-11-28T09:48:34.455Z,14.40
2017-11-28T09:51:01.166Z,16.60
2017-11-28T09:53:27.160Z,12.43
2017-11-28T09:55:53.134Z,15.60
2017-11-28T09:58:19.847Z,15.97
2017-11-28T10:00:45.859Z,16.00
2017-11-28T10:03:11.830Z,13.20
2017-11-28T10:05:38.541Z,14.90
2017-11-28T10:08:04.578Z,16.40
2017-11-28T10:10:31.410Z,15.70
2017-11-28T10:12:57.371Z,12.37
2017-11-28T10:15:23.349Z,16.77
2017-11-28T10:17:49.341Z,17.90
2017-11-28T10:20:15.317Z,13.60
2017-11-28T10:22:41.298Z,14.32
2017-11-28T10:25:07.257Z,13.10
2017-11-28T10:27:33.266Z,14.70
2017-11-28T10:29:59.970Z,16.98
2017-11-28T10:32:26.006Z,16.30
2017-11-28T10:34:52.014Z,18.65
2017-11-28T10:37:17.983Z,14.05
2017-11-28T10:39:44.740Z,12.40
2017-11-28T10:42:10.738Z,17.48
2017-11-28T10:44:37.480Z,11.68
2017-11-28T10:47:04.218Z,13.13
2017-11-28T10:49:30.951Z,15.23
2017-11-28T10:51:57.670Z,14.93
2017-11-28T10:54:23.646Z,14.90
2017-11-28T10:56:49.619Z,13.32
2017-11-28T10:59:15.589Z,12.40
2017-11-28T11:01:41.590Z,13.70
2017-11-28T11:04:07.558Z,17.27
2017-11-28T11:06:33.565Z,14.50
2017-11-28T11:08:59.541Z,11.90
2017-11-28T11:11:26.291Z,16.05
2017-11-28T11:13:53.046Z,15.23
2017-11-28T11:16:19.034Z,15.27
2017-11-28T11:18:45.036Z,12.32
2017-11-28T11:21:11.025Z,19.50
2017-11-28T11:23:37.013Z,13.60
2017-11-28T11:26:03.733Z,13.95
2017-11-28T11:28:30.462Z,13.82
2017-11-28T11:30:56.424Z,15.45
2017-11-28T11:33:22.397Z,12.52
2017-11-28T11:35:48.390Z,20.12
2017-11-28T11:38:14.389Z,15.17
2017-11-28T11:40:40.349Z,14.43
2017-11-28T11:43:06.338Z,13.25
2017-11-28T11:45:32.313Z,14.33
2017-11-28T11:47:58.455Z,17.20
2017-11-28T11:50:32.137Z,12.65
2017-11-28T11:52:58.134Z,13.35
2017-11-28T11:55:24.130Z,12.55
2017-11-28T11:57:50.229Z,11.80
2017-11-28T12:00:16.962Z,12.52
2017-11-28T12:02:42.953Z,12.15
2017-11-28T12:05:08.956Z,13.85
2017-11-28T12:07:34.970Z,10.30
2017-11-28T12:10:00.963Z,9.77
2017-11-28T12:12:27.692Z,10.63
2017-11-28T12:14:54.425Z,13.85
2017-11-28T12:17:20.433Z,12.60
2017-11-28T12:19:46.407Z,11.38
2017-11-28T12:22:12.419Z,10.10
2017-11-28T12:24:39.390Z,16.90
2017-11-28T12:27:05.392Z,11.75
2017-11-28T12:29:31.358Z,11.65
2017-11-28T12:31:57.346Z,11.00
2017-11-28T12:34:23.338Z,10.63
2017-11-28T12:36:50.087Z,9.80
2017-11-28T12:39:16.314Z,10.63
2017-11-28T12:41:42.307Z,9.10
2017-11-28T12:44:08.266Z,10.77
2017-11-28T12:46:34.270Z,7.85
2017-11-28T12:49:00.976Z,7.77
2017-11-28T12:51:26.959Z,10.52
2017-11-28T12:53:53.017Z,6.27
2017-11-28T12:56:18.991Z,8.93
2017-11-28T12:58:44.984Z,9.48
2017-11-28T13:01:12.986Z,7.05
2017-11-28T13:03:38.994Z,7.35
2017-11-28T13:06:04.982Z,5.90
2017-11-28T13:08:30.961Z,7.82
2017-11-28T13:10:56.950Z,8.23
2017-11-28T13:13:23.779Z,8.48
2017-11-28T13:15:50.506Z,9.60
2017-11-28T13:18:16.474Z,8.60
2017-11-28T13:20:42.530Z,7.05
2017-11-28T13:23:08.498Z,6.77
2017-11-28T13:25:35.205Z,8.57
2017-11-28T13:28:01.206Z,8.80
2017-11-28T13:30:27.209Z,10.05
2017-11-28T13:32:53.180Z,8.53
2017-11-28T13:35:19.186Z,5.82
2017-11-28T13:37:45.880Z,4.72
2017-11-28T13:40:11.859Z,7.18
2017-11-28T13:42:38.103Z,4.90
2017-11-28T13:45:04.822Z,8.25
2017-11-28T13:47:30.802Z,7.20
2017-11-28T13:49:56.790Z,9.50
2017-11-28T13:52:23.515Z,10.07
2017-11-28T13:54:49.479Z,7.00
2017-11-28T13:57:15.502Z,9.45
2017-11-28T13:59:41.522Z,9.13
2017-11-28T14:02:07.484Z,8.33
2017-11-28T14:04:33.465Z,10.07
2017-11-28T14:06:59.440Z,7.90
2017-11-28T14:09:25.403Z,18.40
2017-11-28T14:11:51.453Z,66.68
2017-11-28T14:14:17.450Z,55.47
2017-11-28T14:16:43.476Z,7.45
2017-11-28T14:19:09.471Z,9.57
2017-11-28T14:21:36.205Z,14.77
2017-11-28T14:24:09.202Z,5.70
2017-11-28T14:26:36.858Z,7.20
2017-11-28T14:29:09.546Z,8.10
2017-11-28T14:31:41.638Z,7.37
2017-11-28T14:34:07.624Z,9.52
2017-11-28T14:36:34.353Z,8.38
2017-11-28T14:39:07.075Z,7.55
2017-11-28T14:41:43.041Z,9.95
2017-11-28T14:44:09.068Z,7.55
2017-11-28T14:46:35.065Z,7.00
2017-11-28T14:49:01.053Z,10.85
2017-11-28T14:51:36.793Z,10.07
2017-11-28T14:54:08.735Z,10.52
2017-11-28T14:56:36.642Z,9.10
2017-11-28T14:59:09.532Z,10.63
2017-11-28T15:01:42.520Z,6.80
2017-11-28T15:07:30.895Z,11.88
2017-11-28T15:10:03.038Z,7.47
2017-11-28T15:12:35.974Z,7.53
2017-11-28T15:15:08.169Z,4.97
2017-11-28T15:17:34.162Z,8.05
2017-11-28T15:20:01.987Z,7.87
2017-11-28T15:22:28.722Z,5.45
2017-11-28T15:24:57.396Z,6.72
2017-11-28T15:27:24.137Z,6.53
2017-11-28T15:29:50.875Z,5.87
2017-11-28T15:32:17.615Z,8.57
2017-11-28T15:34:44.333Z,8.87
2017-11-28T15:37:10.322Z,5.12
2017-11-28T15:39:37.115Z,10.37
2017-11-28T15:42:03.935Z,8.48
2017-11-28T15:44:29.894Z,6.27
2017-11-28T15:46:55.862Z,8.82
2017-11-28T15:49:21.858Z,7.53
2017-11-28T15:51:47.845Z,8.50
2017-11-28T15:54:14.557Z,11.12
2017-11-28T15:56:40.598Z,10.88
2017-11-28T15:59:06.560Z,6.40
2017-11-28T16:01:32.527Z,9.73
2017-11-28T16:03:58.583Z,8.82
2017-11-28T16:06:25.321Z,8.52
2017-11-28T16:08:52.043Z,6.70
2017-11-28T16:11:18.828Z,15.40
2017-11-28T16:13:44.818Z,23.30
2017-11-28T16:16:12.678Z,27.30
2017-11-28T16:18:39.382Z,13.73
2017-11-28T16:21:05.361Z,13.77
2017-11-28T16:23:31.525Z,6.07
2017-11-28T16:25:58.227Z,6.87
2017-11-28T16:28:24.254Z,8.40
2017-11-28T16:30:50.528Z,7.17
2017-11-28T16:33:16.548Z,7.10
2017-11-28T16:35:42.519Z,4.97
2017-11-28T16:38:08.510Z,5.12
2017-11-28T16:40:34.479Z,8.57
2017-11-28T16:43:00.477Z,4.78
2017-11-28T16:45:26.539Z,7.47
2017-11-28T16:47:53.264Z,4.85
2017-11-28T16:50:19.223Z,2.33
2017-11-28T16:52:45.232Z,3.62
2017-11-28T16:55:11.266Z,5.05
2017-11-28T16:57:37.293Z,3.20
2017-11-28T17:00:03.311Z,2.83
2017-11-28T17:02:29.340Z,3.03
2017-11-28T17:04:55.382Z,3.47
2017-11-28T17:07:21.359Z,6.32
2017-11-28T17:09:47.377Z,3.47
2017-11-28T17:12:13.367Z,3.13
2017-11-28T17:14:39.361Z,4.15
2017-11-28T17:17:06.105Z,4.35
2017-11-28T17:19:32.106Z,7.18
2017-11-28T17:21:58.108Z,5.20
2017-11-28T17:24:24.097Z,6.23
2017-11-28T17:26:50.176Z,4.53
2017-11-28T17:29:16.221Z,5.22
2017-11-28T17:31:42.981Z,4.32
2017-11-28T17:34:09.018Z,5.12
2017-11-28T17:36:35.045Z,5.00
2017-11-28T17:39:01.078Z,5.60
2017-11-28T17:41:27.352Z,5.32
2017-11-28T17:43:54.079Z,7.20
2017-11-28T17:46:20.125Z,10.98
2017-11-28T17:48:46.894Z,18.10
2017-11-28T17:51:12.882Z,8.02
2017-11-28T17:53:39.621Z,7.57
2017-11-28T17:56:06.369Z,7.80
2017-11-28T17:58:33.440Z,6.37
2017-11-28T18:00:59.439Z,7.62
2017-11-28T18:03:26.358Z,9.73
2017-11-28T18:05:52.337Z,11.25
2017-11-28T18:08:18.373Z,8.60
2017-11-28T18:10:44.403Z,10.32
2017-11-28T18:13:10.423Z,11.35
2017-11-28T18:15:36.406Z,9.88
2017-11-28T18:18:02.491Z,10.70
2017-11-28T18:20:28.482Z,9.63
2017-11-28T18:22:54.463Z,10.75
2017-11-28T18:25:21.199Z,8.97
2017-11-28T18:27:48.002Z,8.32
2017-11-28T18:30:14.973Z,12.73
2017-11-28T18:32:42.027Z,10.43
2017-11-28T18:35:08.739Z,9.60
2017-11-28T18:37:34.725Z,9.18
2017-11-28T18:40:00.909Z,8.47
2017-11-28T18:42:27.727Z,11.60
2017-11-28T18:44:53.746Z,13.30
2017-11-28T18:47:19.698Z,10.38
2017-11-28T18:49:46.432Z,14.20
2017-11-28T18:52:13.398Z,10.25
2017-11-28T18:54:39.357Z,10.75
2017-11-28T18:57:05.326Z,9.17
2017-11-28T18:59:32.667Z,12.60
2017-11-28T19:01:59.378Z,13.20
2017-11-28T19:04:25.342Z,12.03
2017-11-28T19:06:52.097Z,14.82
2017-11-28T19:09:18.088Z,10.45
2017-11-28T19:11:44.097Z,11.63
2017-11-28T19:14:10.165Z,10.32
2017-11-28T19:16:36.163Z,14.32
2017-11-28T19:19:02.902Z,11.68
2017-11-28T19:21:29.632Z,10.68
2017-11-28T19:23:56.361Z,11.40
2017-11-28T19:26:22.327Z,12.30
2017-11-28T19:28:48.322Z,11.80
2017-11-28T19:31:15.471Z,9.73
2017-11-28T19:33:42.180Z,11.65
2017-11-28T19:36:08.170Z,14.68
2017-11-28T19:38:34.554Z,10.88
2017-11-28T19:41:01.285Z,9.50
2017-11-28T19:43:27.260Z,9.30
2017-11-28T19:45:53.330Z,11.38
2017-11-28T19:48:19.322Z,13.40
2017-11-28T19:50:45.323Z,12.65
2017-11-28T19:53:11.423Z,11.30
2017-11-28T19:55:37.494Z,11.48
2017-11-28T19:58:03.481Z,12.05
2017-11-28T20:00:29.517Z,13.32
2017-11-28T20:02:55.510Z,15.50
2017-11-28T20:05:22.250Z,14.13
2017-11-28T20:07:49.022Z,12.50
2017-11-28T20:10:15.012Z,10.88
2017-11-28T20:12:41.735Z,8.48
2017-11-28T20:15:07.764Z,9.75
2017-11-28T20:17:34.514Z,15.05
2017-11-28T20:20:01.254Z,10.88
2017-11-28T20:22:28.097Z,11.32
2017-11-28T20:24:54.821Z,10.68
2017-11-28T20:27:21.578Z,13.32
2017-11-28T20:29:47.646Z,12.48
2017-11-28T20:32:13.727Z,11.00
2017-11-28T20:34:40.446Z,10.73
2017-11-28T20:37:07.203Z,10.57
2017-11-28T20:39:33.295Z,8.40
2017-11-28T20:41:59.265Z,14.20
2017-11-28T20:44:25.264Z,13.32
2017-11-28T20:46:52.031Z,10.88
2017-11-28T20:49:24.279Z,10.50
2017-11-28T20:51:59.628Z,13.20
2017-11-28T20:54:25.984Z,10.45
2017-11-28T20:56:51.974Z,11.95
2017-11-28T20:59:17.969Z,11.67
2017-11-28T21:01:44.325Z,11.23
2017-11-28T21:04:10.296Z,8.77
2017-11-28T21:06:36.320Z,15.70
2017-11-28T21:09:02.362Z,13.27
2017-11-28T21:11:28.367Z,11.93
2017-11-28T21:13:54.429Z,11.02
2017-11-28T21:16:21.178Z,11.10
2017-11-28T21:18:47.910Z,13.00
2017-11-28T21:21:13.914Z,12.90
2017-11-28T21:23:39.893Z,10.00
2017-11-28T21:26:05.874Z,11.45
2017-11-28T21:28:32.724Z,11.35
2017-11-28T21:30:58.704Z,13.68
2017-11-28T21:33:24.700Z,11.35
2017-11-28T21:35:50.730Z,11.97
2017-11-28T21:38:16.741Z,11.40
2017-11-28T21:40:42.733Z,14.45
2017-11-28T21:43:09.057Z,12.90
2017-11-28T21:45:35.784Z,13.77
2017-11-28T21:48:02.497Z,13.48
2017-11-28T21:50:28.535Z,19.37
2017-11-28T21:52:54.509Z,11.55
2017-11-28T21:55:20.489Z,14.00
2017-11-28T21:57:47.575Z,13.85
2017-11-28T22:00:13.594Z,14.10
2017-11-28T22:02:39.573Z,10.80
2017-11-28T22:05:05.577Z,13.77
2017-11-28T22:07:31.619Z,12.37
2017-11-28T22:09:57.602Z,13.85
2017-11-28T22:12:23.619Z,15.93
2017-11-28T22:14:49.633Z,13.70
2017-11-28T22:17:15.636Z,13.57
2017-11-28T22:19:41.618Z,17.42
2017-11-28T22:22:07.775Z,14.83
2017-11-28T22:24:34.561Z,14.10
2017-11-28T22:27:00.582Z,15.57
2017-11-28T22:29:26.616Z,16.27
2017-11-28T22:31:52.604Z,17.40
2017-11-28T22:34:18.738Z,15.77
2017-11-28T22:36:44.757Z,17.02
2017-11-28T22:39:10.826Z,18.92
2017-11-28T22:41:43.694Z,16.30
2017-11-28T22:44:09.687Z,15.63
2017-11-28T22:46:35.659Z,17.20
2017-11-28T22:49:01.671Z,15.63
2017-11-28T22:51:28.029Z,13.98
2017-11-28T22:53:54.748Z,17.33
2017-11-28T22:56:20.743Z,17.20
2017-11-28T22:58:46.786Z,17.23
2017-11-28T23:01:12.810Z,18.90
2017-11-28T23:03:38.867Z,18.67
2017-11-28T23:06:05.985Z,15.10
2017-11-28T23:08:31.988Z,15.70
2017-11-28T23:10:58.050Z,18.20
2017-11-28T23:13:24.828Z,18.15
2017-11-28T23:15:50.840Z,19.47
2017-11-28T23:18:16.810Z,20.23
2017-11-28T23:20:43.982Z,16.90
2017-11-28T23:23:10.746Z,20.43
2017-11-28T23:25:36.760Z,20.65
2017-11-28T23:28:02.785Z,18.20
2017-11-28T23:30:28.760Z,16.02
2017-11-28T23:32:54.752Z,17.73
2017-11-28T23:35:20.866Z,17.30
2017-11-28T23:37:46.895Z,19.98
2017-11-28T23:40:13.330Z,18.35
2017-11-28T23:42:39.303Z,16.48
2017-11-28T23:45:06.034Z,21.87
2017-11-28T23:47:32.058Z,18.63
2017-11-28T23:49:58.799Z,21.58
2017-11-28T23:52:25.551Z,25.23
2017-11-28T23:54:52.590Z,21.62
2017-11-28T23:57:19.337Z,21.85
2017-11-28T23:59:46.058Z,20.40
